»·PEaware :: N245LG KPSP-KRAL

N245LG :: KPSP-KRAL

FLIGHT INFORMATION

Flight Status: Arrived
Operator: Privately registered:
United States
More flights under this callsign
Pilot: Erik A. (17503)
Aircraft: CESSNA 172 SKYHAWK
(C172)
More flights by this aircraft type
Origin: KPSP Palm Springs Intl
United States
Destination: KRAL Riverside Mun
United States
More flights between these airports :: More routes between these airports
Route: +
File this flight plan on PilotEdge
Remarks:
Altitude:
(Current/Filed)
6,500ft
Speed:
(Current/Filed)
0kts
Departed: 20-Dec-17 01:35 PM
Arrived: 20-Dec-17 02:16 PM
Distance/Time
Traveled:
59nm/0:41
Distance/Time
To Go:
Arrived

Flight Plot

Page will automatically refresh every two minutes.

Flight plan parsing failed; only flown route is shown


Map Options




Map Legend


Flown Route
Filed Route
Departure Airport
Arrival Airport
Navaid (VOR, NDB)
Fix

Horizontal Profiles

Position Reports

Time Latitude Longitude Heading Altitude Ground
Speed
20-Dec-17 13:40 33.901927 -116.569454 279 6351ft 118kts
20-Dec-17 13:41 33.911809 -116.606113 279 6486ft 107kts
20-Dec-17 13:42 33.918113 -116.641759 275 6460ft 111kts
20-Dec-17 13:43 33.923010 -116.678619 272 6374ft 110kts
20-Dec-17 13:44 33.924543 -116.714393 267 6432ft 105kts
20-Dec-17 13:45 33.926186 -116.749655 272 6548ft 105kts
20-Dec-17 13:46 33.930714 -116.785270 274 6714ft 111kts
20-Dec-17 13:47 33.934063 -116.823337 268 6603ft 113kts
20-Dec-17 13:48 33.936177 -116.861834 269 6435ft 115kts
20-Dec-17 13:49 33.939747 -116.899105 275 6359ft 107kts
20-Dec-17 13:50 33.942336 -116.933576 270 6506ft 100kts
20-Dec-17 13:51 33.946158 -116.967268 274 6618ft 105kts
20-Dec-17 13:52 33.953718 -117.001317 288 6522ft 106kts
20-Dec-17 13:53 33.966017 -117.033906 288 6356ft 108kts
20-Dec-17 13:54 33.978755 -117.066683 294 6355ft 108kts
20-Dec-17 13:55 33.995980 -117.097384 301 6415ft 112kts
20-Dec-17 13:56 34.013024 -117.128374 289 6318ft 114kts
20-Dec-17 13:57 34.024776 -117.162904 286 6193ft 112kts
20-Dec-17 13:58 34.035858 -117.197654 279 5882ft 111kts
20-Dec-17 13:59 34.041836 -117.233473 275 5428ft 102kts
20-Dec-17 14:00 34.041943 -117.269494 262 4660ft 109kts
20-Dec-17 14:01 34.030552 -117.303352 234 3883ft 111kts
20-Dec-17 14:02 34.012773 -117.333724 235 2998ft 112kts
20-Dec-17 14:03 33.990872 -117.360203 228 2035ft 112kts
20-Dec-17 14:04 33.974738 -117.384188 229 2181ft 88kts
20-Dec-17 14:05 33.957352 -117.405150 218 1976ft 77kts
20-Dec-17 14:06 33.948306 -117.423588 267 1235ft 72kts
20-Dec-17 14:07 33.952467 -117.444477 284 770ft 65kts
20-Dec-17 14:08 33.957519 -117.467713 296 1517ft 72kts
20-Dec-17 14:09 33.968776 -117.458425 101 1899ft 88kts
20-Dec-17 14:10 33.962342 -117.429974 106 1765ft 84kts
20-Dec-17 14:11 33.949668 -117.429426 288 1045ft 70kts
20-Dec-17 14:12 33.953223 -117.448312 282 826ft 71kts
20-Dec-17 14:13 33.960929 -117.469845 327 1583ft 75kts
20-Dec-17 14:14 33.968527 -117.450865 100 1874ft 92kts
20-Dec-17 14:15 33.961772 -117.423396 122 1767ft 63kts
20-Dec-17 14:16 33.949562 -117.429598 277 1039ft 68kts
20-Dec-17 14:17 33.954497 -117.454988 285 1295ft 88kts
20-Dec-17 14:18 33.973154 -117.455784 67 1896ft 105kts
20-Dec-17 14:19 33.969022 -117.421163 107 1905ft 92kts
20-Dec-17 14:20 33.956977 -117.406841 196 1520ft 61kts
20-Dec-17 14:21 33.947648 -117.420053 275 1096ft 54kts
20-Dec-17 14:22 33.950919 -117.436631 281 770ft 34kts
20-Dec-17 14:23 33.951141 -117.437737 284 770ft 0kts
20-Dec-17 14:24 33.954842 -117.455685 284 1137ft 76kts
20-Dec-17 14:25 33.968103 -117.472329 8 1849ft 88kts
20-Dec-17 14:26 33.973295 -117.442746 105 2029ft 107kts
20-Dec-17 14:27 33.960766 -117.412219 156 1961ft 92kts
20-Dec-17 14:28 33.945851 -117.414737 291 1358ft 57kts
20-Dec-17 14:29 33.950165 -117.432770 282 815ft 51kts
20-Dec-17 14:30 33.953774 -117.450236 282 961ft 78kts
20-Dec-17 14:31 33.960255 -117.476831 282 1615ft 88kts
20-Dec-17 14:32 33.965526 -117.507404 283 2229ft 94kts
20-Dec-17 14:33 33.972893 -117.539880 269 2447ft 107kts
20-Dec-17 14:34 33.966589 -117.577169 258 2229ft 117kts
20-Dec-17 14:35 33.966288 -117.616150 273 1972ft 116kts
20-Dec-17 14:36 33.979155 -117.649139 315 2091ft 100kts
20-Dec-17 14:37 34.000180 -117.672454 309 2424ft 120kts

Navigation Log

Ident Type
Flight plan parsing failed, navigation log unavailable